createdAt,value
2023-05-14T00:02:36.182Z,96948.97
2023-05-14T00:05:24.926Z,96939.78
2023-05-14T00:08:13.288Z,96941.50
2023-05-14T00:11:01.601Z,96935.81
2023-05-14T00:13:50.450Z,96938.22
2023-05-14T00:16:40.127Z,96934.22
2023-05-14T00:19:28.569Z,96935.66
2023-05-14T00:22:16.946Z,96930.84
2023-05-14T00:25:06.521Z,96931.94
2023-05-14T00:27:54.922Z,96923.88
2023-05-14T00:30:43.401Z,96928.56
2023-05-14T00:33:33.654Z,96922.78
2023-05-14T00:36:22.084Z,96922.78
2023-05-14T00:39:11.059Z,96923.41
2023-05-14T00:41:59.957Z,96922.50
2023-05-14T00:44:48.331Z,96921.91
2023-05-14T00:47:37.425Z,96923.50
2023-05-14T00:50:27.559Z,96925.19
2023-05-14T00:53:16.048Z,96923.13
2023-05-14T00:56:04.664Z,96922.00
2023-05-14T00:58:53.336Z,96917.75
2023-05-14T01:01:41.866Z,96926.69
2023-05-14T01:04:30.369Z,96921.81
2023-05-14T01:07:24.453Z,96919.94
2023-05-14T01:10:15.982Z,96919.13
2023-05-14T01:13:09.465Z,96909.75
2023-05-14T01:15:58.730Z,96909.59
2023-05-14T01:18:48.619Z,96907.56
2023-05-14T01:21:44.426Z,96910.88
2023-05-14T01:24:32.890Z,96901.22
2023-05-14T01:27:27.326Z,96905.81
2023-05-14T01:30:22.710Z,96896.94
2023-05-14T01:33:12.647Z,96899.00
2023-05-14T01:36:01.329Z,96895.22
2023-05-14T01:38:51.543Z,96890.84
2023-05-14T01:41:41.053Z,96894.63
2023-05-14T01:44:29.427Z,96890.53
2023-05-14T01:47:17.842Z,96887.81
2023-05-14T01:50:07.154Z,96883.25
2023-05-14T01:52:56.584Z,96883.75
2023-05-14T01:55:46.612Z,96881.06
2023-05-14T01:58:35.200Z,96882.66
2023-05-14T02:01:23.950Z,96884.44
2023-05-14T02:04:12.424Z,96891.81
2023-05-14T02:07:03.126Z,96879.47
2023-05-14T02:09:51.510Z,96882.44
2023-05-14T02:12:41.421Z,96876.66
2023-05-14T02:15:29.923Z,96871.28
2023-05-14T02:18:18.351Z,96874.16
2023-05-14T02:21:06.785Z,96867.66
2023-05-14T02:23:56.159Z,96868.28
2023-05-14T02:26:44.601Z,96870.19
2023-05-14T02:29:34.389Z,96867.31
2023-05-14T02:32:23.365Z,96865.50
2023-05-14T02:35:12.163Z,96866.13
2023-05-14T02:38:00.822Z,96860.75
2023-05-14T02:40:49.772Z,96860.13
2023-05-14T02:43:38.124Z,96859.78
2023-05-14T02:46:27.933Z,96859.78
2023-05-14T02:49:16.826Z,96855.78
2023-05-14T02:52:05.616Z,96847.41
2023-05-14T02:54:54.023Z,96847.53
2023-05-14T02:57:42.393Z,96848.00
2023-05-14T03:00:30.781Z,96839.47
2023-05-14T03:03:21.440Z,96841.38
2023-05-14T03:06:10.169Z,96838.97
2023-05-14T03:08:58.525Z,96842.16
2023-05-14T03:11:46.983Z,96837.06
2023-05-14T03:14:35.372Z,96838.97
2023-05-14T03:17:23.805Z,96842.16
2023-05-14T03:20:14.395Z,96844.06
2023-05-14T03:23:02.879Z,96840.06
2023-05-14T03:25:51.311Z,96840.69
2023-05-14T03:28:39.742Z,96839.69
2023-05-14T03:31:28.233Z,96848.84
2023-05-14T03:34:18.058Z,96840.63
2023-05-14T03:37:07.775Z,96833.38
2023-05-14T03:39:56.141Z,96833.19
2023-05-14T03:42:44.550Z,96835.97
2023-05-14T03:45:33.281Z,96838.16
2023-05-14T03:48:21.753Z,96834.78
2023-05-14T03:51:10.216Z,96847.53
2023-05-14T03:53:59.952Z,96842.16
2023-05-14T03:56:49.030Z,96834.00
2023-05-14T03:59:37.357Z,96838.78
2023-05-14T04:02:26.154Z,96837.69
2023-05-14T04:05:40.113Z,96839.97
2023-05-14T04:08:28.461Z,96835.69
2023-05-14T04:11:19.345Z,96836.19
2023-05-14T04:14:07.789Z,96835.56
2023-05-14T04:16:56.192Z,96839.06
2023-05-14T04:19:44.564Z,96836.56
2023-05-14T04:22:33.138Z,96843.13
2023-05-14T04:25:21.994Z,96833.69
2023-05-14T04:28:11.933Z,96840.97
2023-05-14T04:31:00.312Z,96836.69
2023-05-14T04:33:48.757Z,96833.78
2023-05-14T04:36:37.231Z,96837.00
2023-05-14T04:39:25.978Z,96838.38
2023-05-14T04:42:14.332Z,96851.91
2023-05-14T04:45:05.270Z,96852.91
2023-05-14T04:47:53.755Z,96851.72
2023-05-14T04:50:42.160Z,96853.50
2023-05-14T04:53:30.467Z,96848.81
2023-05-14T04:56:19.008Z,96851.00
2023-05-14T04:59:07.358Z,96846.31
2023-05-14T05:01:57.103Z,96849.13
2023-05-14T05:04:45.432Z,96849.81
2023-05-14T05:07:33.793Z,96845.16
2023-05-14T05:10:22.607Z,96841.06
2023-05-14T05:13:11.173Z,96843.66
2023-05-14T05:15:59.723Z,96842.38
2023-05-14T05:18:49.681Z,96847.13
2023-05-14T05:21:40.279Z,96846.09
2023-05-14T05:24:28.613Z,96845.00
2023-05-14T05:27:16.974Z,96851.88
2023-05-14T05:30:06.537Z,96840.34
2023-05-14T05:32:57.024Z,96845.25
2023-05-14T05:35:48.255Z,96842.38
2023-05-14T05:38:36.635Z,96843.94
2023-05-14T05:41:24.926Z,96841.53
2023-05-14T05:44:13.286Z,96851.97
2023-05-14T05:47:01.731Z,96846.31
2023-05-14T05:49:50.655Z,96849.88
2023-05-14T05:52:40.596Z,96843.75
2023-05-14T05:55:29.735Z,96840.56
2023-05-14T05:58:18.145Z,96845.81
2023-05-14T06:01:06.612Z,96847.13
2023-05-14T06:03:54.949Z,96850.50
2023-05-14T06:06:43.502Z,96850.72
2023-05-14T06:09:33.216Z,96852.22
2023-05-14T06:12:21.820Z,96859.66
2023-05-14T06:15:12.124Z,96852.28
2023-05-14T06:18:00.753Z,96856.28
2023-05-14T06:20:49.133Z,96851.22
2023-05-14T06:23:37.841Z,96856.09
2023-05-14T06:26:27.615Z,96862.84
2023-05-14T06:29:15.924Z,96859.06
2023-05-14T06:32:05.209Z,96857.47
2023-05-14T06:34:53.574Z,96860.63
2023-05-14T06:37:41.904Z,96858.22
2023-05-14T06:40:30.272Z,96859.44
2023-05-14T06:43:20.090Z,96856.13
2023-05-14T06:46:08.451Z,96859.81
2023-05-14T06:48:59.197Z,96854.56
2023-05-14T06:51:48.097Z,96856.03
2023-05-14T06:54:36.440Z,96851.88
2023-05-14T06:57:24.814Z,96855.06
2023-05-14T07:00:16.113Z,96853.16
2023-05-14T07:03:04.537Z,96861.00
2023-05-14T07:05:52.891Z,96850.94
2023-05-14T07:08:41.352Z,96855.59
2023-05-14T07:11:29.788Z,96854.72
2023-05-14T07:14:18.278Z,96850.06
2023-05-14T07:17:08.053Z,96833.28
2023-05-14T07:19:56.569Z,96843.00
2023-05-14T07:22:45.054Z,96834.44
2023-05-14T07:25:33.891Z,96834.25
2023-05-14T07:28:22.241Z,96831.41
2023-05-14T07:31:10.875Z,96816.19
2023-05-14T07:34:00.665Z,96816.16
2023-05-14T07:36:49.165Z,96819.53
2023-05-14T07:39:37.538Z,96812.09
2023-05-14T07:42:35.981Z,96811.47
2023-05-14T07:45:25.557Z,96810.94
2023-05-14T07:48:13.970Z,96809.63
2023-05-14T07:51:03.781Z,96810.97
2023-05-14T07:53:52.120Z,96811.38
2023-05-14T07:56:40.441Z,96807.72
2023-05-14T07:59:28.859Z,96804.19
2023-05-14T08:02:17.627Z,96809.78
2023-05-14T08:05:06.978Z,96800.94
2023-05-14T08:07:56.779Z,96809.69
2023-05-14T08:10:45.268Z,96805.75
2023-05-14T08:13:33.713Z,96810.94
2023-05-14T08:16:22.108Z,96797.00
2023-05-14T08:19:10.524Z,96799.53
2023-05-14T08:21:58.954Z,96802.84
2023-05-14T08:24:48.888Z,96798.91
2023-05-14T08:27:37.412Z,96796.06
2023-05-14T08:30:25.997Z,96802.59
2023-05-14T08:33:14.716Z,96799.59
2023-05-14T08:36:03.142Z,96796.75
2023-05-14T08:38:51.606Z,96794.03
2023-05-14T08:41:41.354Z,96800.41
2023-05-14T08:44:34.371Z,96796.44
2023-05-14T08:47:24.015Z,96790.25
2023-05-14T08:50:12.679Z,96780.28
2023-05-14T08:53:01.137Z,96777.22
2023-05-14T08:55:51.392Z,96785.03
2023-05-14T08:58:41.148Z,96781.88
2023-05-14T09:01:30.050Z,96782.84
2023-05-14T09:04:22.246Z,96782.69
2023-05-14T09:07:11.414Z,96781.88
2023-05-14T09:10:00.372Z,96772.63
2023-05-14T09:12:48.741Z,96775.22
2023-05-14T09:15:38.816Z,96781.09
2023-05-14T09:18:27.189Z,96772.63
2023-05-14T09:21:15.907Z,96779.50
2023-05-14T09:24:04.764Z,96771.69
2023-05-14T09:26:54.451Z,96769.03
2023-05-14T09:29:43.509Z,96768.41
2023-05-14T09:32:38.472Z,96767.44
2023-05-14T09:35:26.899Z,96766.47
2023-05-14T09:38:15.247Z,96757.94
2023-05-14T09:41:04.216Z,96768.53
2023-05-14T09:43:52.824Z,96764.41
2023-05-14T09:46:41.215Z,96767.38
2023-05-14T09:49:31.028Z,96755.09
2023-05-14T09:52:19.986Z,96755.41
2023-05-14T09:55:09.289Z,96761.44
2023-05-14T09:57:57.677Z,96762.16
2023-05-14T10:00:47.751Z,96769.13
2023-05-14T10:03:36.413Z,96763.88
2023-05-14T10:06:28.914Z,96756.56
2023-05-14T10:09:17.935Z,96754.78
2023-05-14T10:12:07.343Z,96755.59
2023-05-14T10:14:58.842Z,96751.34
2023-05-14T10:17:50.704Z,96748.00
2023-05-14T10:20:39.486Z,96738.94
2023-05-14T10:23:29.272Z,96731.34
2023-05-14T10:26:17.801Z,96729.00
2023-05-14T10:29:06.154Z,96728.34
2023-05-14T10:31:55.567Z,96727.16
2023-05-14T10:34:44.882Z,96732.03
2023-05-14T10:37:34.060Z,96722.97
2023-05-14T10:40:26.190Z,96735.06
2023-05-14T10:43:16.009Z,96726.22
2023-05-14T10:46:05.261Z,96725.09
2023-05-14T10:48:53.816Z,96724.06
2023-05-14T10:51:42.378Z,96725.81
2023-05-14T10:54:30.891Z,96723.19
2023-05-14T10:57:21.296Z,96715.38
2023-05-14T11:00:10.920Z,96713.69
2023-05-14T11:02:59.652Z,96705.88
2023-05-14T11:05:48.189Z,96710.72
2023-05-14T11:08:36.590Z,96713.13
2023-05-14T11:11:26.136Z,96717.13
2023-05-14T11:14:15.875Z,96706.88
2023-05-14T11:17:04.257Z,96711.31
2023-05-14T11:19:52.717Z,96709.75
2023-05-14T11:22:42.678Z,96714.03
2023-05-14T11:25:31.227Z,96707.81
2023-05-14T11:28:19.607Z,96696.91
2023-05-14T11:31:09.286Z,96701.63
2023-05-14T11:33:58.131Z,96688.53
2023-05-14T11:36:46.711Z,96684.47
2023-05-14T11:39:19.543Z,96680.06
2023-05-14T11:41:47.607Z,96681.75
2023-05-14T11:44:15.696Z,96680.63
2023-05-14T11:47:05.034Z,96677.22
2023-05-14T11:49:51.682Z,96667.63
2023-05-14T11:52:40.279Z,96666.38
2023-05-14T11:55:12.217Z,96671.25
2023-05-14T11:57:58.984Z,96666.16
2023-05-14T12:00:27.801Z,96657.88
2023-05-14T12:02:57.407Z,96646.81
2023-05-14T12:05:56.511Z,96641.41
2023-05-14T12:08:27.666Z,96649.25
2023-05-14T12:10:55.889Z,96642.56
2023-05-14T12:13:27.337Z,96645.94
2023-05-14T12:15:56.750Z,96643.53
2023-05-14T12:18:44.679Z,96635.06
2023-05-14T12:21:12.744Z,96626.97
2023-05-14T12:23:40.976Z,96629.47
2023-05-14T12:26:28.721Z,96621.25
2023-05-14T12:29:17.619Z,96612.91
2023-05-14T12:32:09.661Z,96617.41
2023-05-14T12:34:47.270Z,96612.75
2023-05-14T12:37:34.095Z,96603.13
2023-05-14T12:40:02.227Z,96594.88
2023-05-14T12:42:30.186Z,96597.16
2023-05-14T12:44:58.510Z,96592.19
2023-05-14T12:47:45.383Z,96594.44
2023-05-14T12:50:14.884Z,96582.91
2023-05-14T12:52:42.980Z,96596.19
2023-05-14T12:55:29.515Z,96580.09
2023-05-14T12:57:57.844Z,96574.13
2023-05-14T13:00:27.081Z,96565.53
2023-05-14T13:02:55.118Z,96571.06
2023-05-14T13:05:24.731Z,96568.75
2023-05-14T13:07:53.844Z,96564.88
2023-05-14T13:10:23.152Z,96556.78
2023-05-14T13:12:52.720Z,96560.47
2023-05-14T13:15:20.845Z,96562.47
2023-05-14T13:17:49.466Z,96561.59
2023-05-14T13:20:18.410Z,96560.63
2023-05-14T13:22:47.914Z,96555.69
2023-05-14T13:25:16.132Z,96553.78
2023-05-14T13:27:44.116Z,96545.00
2023-05-14T13:30:12.817Z,96536.56
2023-05-14T13:32:42.247Z,96527.88
2023-05-14T13:35:10.739Z,96519.31
2023-05-14T13:37:39.026Z,96518.38
2023-05-14T13:40:11.348Z,96511.53
2023-05-14T13:42:40.683Z,96511.19
2023-05-14T13:45:09.626Z,96506.50
2023-05-14T13:47:38.058Z,96505.69
2023-05-14T13:50:07.704Z,96508.38
2023-05-14T13:52:35.896Z,96508.41
2023-05-14T13:55:04.014Z,96509.44
2023-05-14T13:57:33.418Z,96511.34
2023-05-14T14:00:01.646Z,96511.09
2023-05-14T14:02:34.175Z,96504.63
2023-05-14T14:05:02.396Z,96507.06
2023-05-14T14:07:30.597Z,96499.38
2023-05-14T14:10:01.466Z,96498.88
2023-05-14T14:12:30.053Z,96508.75
2023-05-14T14:14:59.576Z,96497.44
2023-05-14T14:17:27.716Z,96494.28
2023-05-14T14:19:55.756Z,96492.94
2023-05-14T14:22:27.116Z,96487.00
2023-05-14T14:24:57.056Z,96487.44
2023-05-14T14:27:25.060Z,96485.94
2023-05-14T14:29:53.065Z,96501.38
2023-05-14T14:32:22.439Z,96510.50
2023-05-14T14:34:50.422Z,96513.66
2023-05-14T14:37:18.822Z,96514.16
2023-05-14T14:39:47.634Z,96528.41
2023-05-14T14:42:15.640Z,96532.19
2023-05-14T14:44:43.653Z,96542.75
2023-05-14T14:47:11.625Z,96544.84
2023-05-14T14:49:41.013Z,96543.97
2023-05-14T14:52:09.701Z,96546.72
2023-05-14T14:54:37.766Z,96558.69
2023-05-14T14:57:06.386Z,96554.38
2023-05-14T14:59:36.260Z,96573.03
2023-05-14T15:02:04.738Z,96567.97
2023-05-14T15:04:34.752Z,96563.50
2023-05-14T15:07:04.190Z,96572.13
2023-05-14T15:09:32.386Z,96568.91
2023-05-14T15:12:00.554Z,96574.88
2023-05-14T15:14:28.683Z,96576.16
2023-05-14T15:16:56.706Z,96582.84
2023-05-14T15:19:24.771Z,96579.66
2023-05-14T15:21:52.947Z,96575.72
2023-05-14T15:24:23.975Z,96579.22
2023-05-14T15:26:53.428Z,96579.94
2023-05-14T15:29:22.439Z,96577.72
2023-05-14T15:31:50.540Z,96583.19
2023-05-14T15:34:18.577Z,96576.94
2023-05-14T15:36:46.602Z,96567.84
2023-05-14T15:39:14.724Z,96568.31
2023-05-14T15:41:44.169Z,96569.94
2023-05-14T15:44:12.210Z,96573.06
2023-05-14T15:46:40.318Z,96567.03
2023-05-14T15:49:09.200Z,96576.03
2023-05-14T15:51:37.270Z,96568.31
2023-05-14T15:54:05.312Z,96577.31
2023-05-14T15:56:33.390Z,96572.84
2023-05-14T15:59:03.300Z,96577.31
2023-05-14T16:01:31.909Z,96577.34
2023-05-14T16:04:00.062Z,96579.81
2023-05-14T16:06:28.121Z,96577.53
2023-05-14T16:08:57.217Z,96570.91
2023-05-14T16:11:25.329Z,96577.25
2023-05-14T16:13:53.352Z,96571.22
2023-05-14T16:16:23.264Z,96576.50
2023-05-14T16:18:51.328Z,96575.91
2023-05-14T16:21:19.353Z,96568.16
2023-05-14T16:23:47.415Z,96571.91
2023-05-14T16:26:15.453Z,96559.53
2023-05-14T16:28:43.521Z,96567.44
2023-05-14T16:31:11.594Z,96569.19
2023-05-14T16:33:41.076Z,96565.25
2023-05-14T16:36:09.343Z,96567.09
2023-05-14T16:38:44.546Z,96563.56
2023-05-14T16:41:21.543Z,96557.22
2023-05-14T16:43:51.175Z,96553.44
2023-05-14T16:46:19.264Z,96557.34
2023-05-14T16:48:50.612Z,96557.63
2023-05-14T16:51:18.625Z,96556.13
2023-05-14T16:53:46.775Z,96556.41
2023-05-14T16:56:14.785Z,96551.66
2023-05-14T16:58:42.977Z,96556.41
2023-05-14T17:01:11.059Z,96563.13
2023-05-14T17:03:39.134Z,96559.25
2023-05-14T17:06:11.533Z,96561.31
2023-05-14T17:08:39.563Z,96562.53
2023-05-14T17:11:07.533Z,96557.47
2023-05-14T17:13:35.700Z,96564.31
2023-05-14T17:16:03.761Z,96562.72
2023-05-14T17:18:32.688Z,96563.13
2023-05-14T17:21:00.753Z,96545.63
2023-05-14T17:23:30.130Z,96553.03
2023-05-14T17:25:58.293Z,96555.56
2023-05-14T17:28:28.067Z,96561.56
2023-05-14T17:30:56.219Z,96559.72
2023-05-14T17:33:24.306Z,96562.06
2023-05-14T17:35:52.347Z,96556.41
2023-05-14T17:38:20.372Z,96558.91
2023-05-14T17:40:49.723Z,96564.69
2023-05-14T17:43:17.767Z,96562.13
2023-05-14T17:45:54.041Z,96570.34
2023-05-14T17:48:23.227Z,96567.44
2023-05-14T17:50:51.599Z,96556.56
2023-05-14T17:53:19.726Z,96568.38
2023-05-14T17:55:50.171Z,96570.63
2023-05-14T17:58:18.256Z,96565.84
2023-05-14T18:00:46.283Z,96564.44
2023-05-14T18:03:15.156Z,96566.34
2023-05-14T18:05:43.410Z,96563.47
2023-05-14T18:08:11.684Z,96561.38
2023-05-14T18:10:39.671Z,96554.63
2023-05-14T18:13:09.191Z,96563.84
2023-05-14T18:15:37.577Z,96564.13
2023-05-14T18:18:06.456Z,96560.44
2023-05-14T18:20:35.554Z,96565.06
2023-05-14T18:23:03.896Z,96556.97
2023-05-14T18:25:32.104Z,96560.31
2023-05-14T18:28:00.363Z,96560.31
2023-05-14T18:30:29.999Z,96556.56
2023-05-14T18:32:59.634Z,96555.94
2023-05-14T18:35:28.043Z,96564.50
2023-05-14T18:37:56.317Z,96564.50
2023-05-14T18:40:24.524Z,96568.16
2023-05-14T18:42:52.729Z,96568.50
2023-05-14T18:45:22.063Z,96571.22
2023-05-14T18:47:51.805Z,96566.31
2023-05-14T18:50:20.233Z,96568.41
2023-05-14T18:52:48.376Z,96560.47
2023-05-14T18:55:16.681Z,96565.91
2023-05-14T18:57:44.852Z,96576.22
2023-05-14T19:00:14.372Z,96574.31
2023-05-14T19:02:42.757Z,96576.06
2023-05-14T19:05:12.409Z,96586.06
2023-05-14T19:07:40.954Z,96588.16
2023-05-14T19:10:10.366Z,96591.00
2023-05-14T19:12:38.544Z,96592.72
2023-05-14T19:15:07.866Z,96585.44
2023-05-14T19:17:37.068Z,96594.63
2023-05-14T19:20:06.449Z,96588.59
2023-05-14T19:22:36.020Z,96592.59
2023-05-14T19:25:05.136Z,96593.34
2023-05-14T19:27:34.210Z,96583.34
2023-05-14T19:30:02.368Z,96587.50
2023-05-14T19:32:30.512Z,96593.06
2023-05-14T19:34:58.805Z,96588.31
2023-05-14T19:37:26.971Z,96594.81
2023-05-14T19:39:56.585Z,96592.09
2023-05-14T19:42:25.011Z,96585.59
2023-05-14T19:44:53.407Z,96591.00
2023-05-14T19:47:21.574Z,96591.00
2023-05-14T19:49:49.755Z,96591.97
2023-05-14T19:52:17.926Z,96593.06
2023-05-14T19:54:46.074Z,96593.09
2023-05-14T19:57:15.652Z,96590.06
2023-05-14T19:59:44.468Z,96581.34
2023-05-14T20:02:18.373Z,96582.78
2023-05-14T20:04:47.496Z,96580.53
2023-05-14T20:07:16.370Z,96578.34
2023-05-14T20:09:44.676Z,96579.16
2023-05-14T20:12:13.324Z,96577.06
2023-05-14T20:14:43.577Z,96574.50
2023-05-14T20:17:11.819Z,96570.41
2023-05-14T20:19:40.013Z,96568.19
2023-05-14T20:22:08.193Z,96578.63
2023-05-14T20:24:36.349Z,96571.31
2023-05-14T20:27:04.635Z,96572.13
2023-05-14T20:29:32.790Z,96571.31
2023-05-14T20:32:02.354Z,96579.13
2023-05-14T20:34:30.511Z,96567.09
2023-05-14T20:36:58.690Z,96565.84
2023-05-14T20:39:26.857Z,96565.97
2023-05-14T20:41:55.113Z,96563.75
2023-05-14T20:44:23.285Z,96567.56
2023-05-14T20:46:51.628Z,96564.38
2023-05-14T20:49:21.183Z,96565.97
2023-05-14T20:51:49.324Z,96561.88
2023-05-14T20:54:17.608Z,96567.75
2023-05-14T20:56:45.782Z,96570.75
2023-05-14T20:59:13.922Z,96559.97
2023-05-14T21:01:42.669Z,96560.63
2023-05-14T21:04:11.015Z,96556.16
2023-05-14T21:06:40.605Z,96558.38
2023-05-14T21:09:08.799Z,96554.13
2023-05-14T21:11:36.995Z,96559.50
2023-05-14T21:14:05.978Z,96558.41
2023-05-14T21:16:34.208Z,96560.00
2023-05-14T21:19:02.500Z,96555.56
2023-05-14T21:21:30.851Z,96555.84
2023-05-14T21:24:00.362Z,96561.13
2023-05-14T21:26:32.731Z,96561.56
2023-05-14T21:29:01.630Z,96555.56
2023-05-14T21:31:29.964Z,96560.28
2023-05-14T21:33:58.176Z,96549.50
2023-05-14T21:36:26.435Z,96551.91
2023-05-14T21:38:54.628Z,96550.00
2023-05-14T21:41:24.326Z,96551.59
2023-05-14T21:43:52.636Z,96550.47
2023-05-14T21:46:20.870Z,96541.91
2023-05-14T21:48:49.094Z,96543.81
2023-05-14T21:51:17.371Z,96541.91
2023-05-14T21:53:46.308Z,96542.53
2023-05-14T21:56:14.531Z,96542.22
2023-05-14T21:58:44.159Z,96536.34
2023-05-14T22:01:12.466Z,96540.97
2023-05-14T22:03:40.756Z,96535.59
2023-05-14T22:06:09.023Z,96536.22
2023-05-14T22:08:37.236Z,96535.72
2023-05-14T22:11:05.705Z,96537.97
2023-05-14T22:13:35.366Z,96532.22
2023-05-14T22:16:12.786Z,96530.03
2023-05-14T22:18:42.668Z,96529.22
2023-05-14T22:21:10.928Z,96532.72
2023-05-14T22:23:39.192Z,96534.63
2023-05-14T22:26:07.395Z,96528.91
2023-05-14T22:28:36.771Z,96530.03
2023-05-14T22:31:06.437Z,96536.22
2023-05-14T22:33:34.599Z,96535.41
2023-05-14T22:36:03.293Z,96528.44
2023-05-14T22:38:31.511Z,96536.69
2023-05-14T22:40:59.797Z,96532.75
2023-05-14T22:43:27.981Z,96532.75
2023-05-14T22:45:56.122Z,96526.56
2023-05-14T22:48:25.769Z,96522.44
2023-05-14T22:50:53.933Z,96528.16
2023-05-14T22:53:22.499Z,96511.50
2023-05-14T22:55:51.519Z,96521.34
2023-05-14T22:58:19.731Z,96512.94
2023-05-14T23:00:47.996Z,96512.78
2023-05-14T23:03:16.163Z,96510.22
2023-05-14T23:05:45.665Z,96503.56
2023-05-14T23:08:13.784Z,96502.00
2023-05-14T23:10:42.025Z,96503.91
2023-05-14T23:13:10.670Z,96501.38
2023-05-14T23:15:39.732Z,96506.13
2023-05-14T23:18:08.920Z,96499.94
2023-05-14T23:20:37.112Z,96504.22
2023-05-14T23:23:06.955Z,96498.97
2023-05-14T23:25:35.145Z,96497.25
2023-05-14T23:28:03.300Z,96491.06
2023-05-14T23:30:31.498Z,96482.50
2023-05-14T23:32:59.683Z,96489.16
2023-05-14T23:35:28.002Z,96481.09
2023-05-14T23:37:56.193Z,96483.31
2023-05-14T23:40:25.788Z,96477.91
2023-05-14T23:42:54.208Z,96474.75
2023-05-14T23:45:22.568Z,96468.56
2023-05-14T23:47:50.940Z,96466.22
2023-05-14T23:50:19.144Z,96474.69
2023-05-14T23:52:47.300Z,96460.28
2023-05-14T23:55:15.774Z,96460.00
2023-05-14T23:57:45.414Z,96455.75
